sensor_id;sensor_type;location;lat;lon;timestamp;temperature;humidity
15072;DHT22;7635;56.696;13.002;2022-10-22T00:02:11;10.40;99.90
15072;DHT22;7635;56.696;13.002;2022-10-22T00:04:41;10.40;99.90
15072;DHT22;7635;56.696;13.002;2022-10-22T00:07:09;10.40;99.90
15072;DHT22;7635;56.696;13.002;2022-10-22T00:09:36;10.40;99.90
15072;DHT22;7635;56.696;13.002;2022-10-22T00:12:03;10.40;99.90
15072;DHT22;7635;56.696;13.002;2022-10-22T00:14:30;10.30;99.90
15072;DHT22;7635;56.696;13.002;2022-10-22T00:16:56;10.40;99.90
15072;DHT22;7635;56.696;13.002;2022-10-22T00:19:25;10.30;99.90
15072;DHT22;7635;56.696;13.002;2022-10-22T00:21:52;10.30;99.90
15072;DHT22;7635;56.696;13.002;2022-10-22T00:24:20;10.30;99.90
15072;DHT22;7635;56.696;13.002;2022-10-22T00:26:47;10.30;99.90
15072;DHT22;7635;56.696;13.002;2022-10-22T00:29:14;10.30;99.90
15072;DHT22;7635;56.696;13.002;2022-10-22T00:31:43;10.30;99.90
15072;DHT22;7635;56.696;13.002;2022-10-22T00:34:14;10.30;99.90
15072;DHT22;7635;56.696;13.002;2022-10-22T00:36:41;10.30;99.90
15072;DHT22;7635;56.696;13.002;2022-10-22T00:39:08;10.30;99.90
15072;DHT22;7635;56.696;13.002;2022-10-22T00:41:36;10.30;99.90
15072;DHT22;7635;56.696;13.002;2022-10-22T00:44:04;10.30;99.90
15072;DHT22;7635;56.696;13.002;2022-10-22T00:46:32;10.30;99.90
15072;DHT22;7635;56.696;13.002;2022-10-22T00:49:01;10.30;99.90
15072;DHT22;7635;56.696;13.002;2022-10-22T00:51:31;10.30;99.90
15072;DHT22;7635;56.696;13.002;2022-10-22T00:54:02;10.30;99.90
15072;DHT22;7635;56.696;13.002;2022-10-22T00:56:30;10.20;99.90
15072;DHT22;7635;56.696;13.002;2022-10-22T00:58:59;10.30;99.90
15072;DHT22;7635;56.696;13.002;2022-10-22T01:01:29;10.30;99.90
15072;DHT22;7635;56.696;13.002;2022-10-22T01:03:57;10.30;99.90
15072;DHT22;7635;56.696;13.002;2022-10-22T01:06:26;10.30;99.90
15072;DHT22;7635;56.696;13.002;2022-10-22T01:09:03;10.30;99.90
15072;DHT22;7635;56.696;13.002;2022-10-22T01:11:44;10.30;99.90
15072;DHT22;7635;56.696;13.002;2022-10-22T01:14:23;10.20;99.90
15072;DHT22;7635;56.696;13.002;2022-10-22T01:16:55;10.20;99.90
15072;DHT22;7635;56.696;13.002;2022-10-22T01:19:40;10.20;99.90
15072;DHT22;7635;56.696;13.002;2022-10-22T01:22:17;10.20;99.90
15072;DHT22;7635;56.696;13.002;2022-10-22T01:24:55;10.20;99.90
15072;DHT22;7635;56.696;13.002;2022-10-22T01:27:29;10.20;99.90
15072;DHT22;7635;56.696;13.002;2022-10-22T01:30:01;10.20;99.90
15072;DHT22;7635;56.696;13.002;2022-10-22T01:32:30;10.20;99.90
15072;DHT22;7635;56.696;13.002;2022-10-22T01:35:00;10.20;99.90
15072;DHT22;7635;56.696;13.002;2022-10-22T01:37:30;10.20;99.90
15072;DHT22;7635;56.696;13.002;2022-10-22T01:39:59;10.20;99.90
15072;DHT22;7635;56.696;13.002;2022-10-22T01:42:27;10.20;99.90
15072;DHT22;7635;56.696;13.002;2022-10-22T01:44:54;10.20;99.90
15072;DHT22;7635;56.696;13.002;2022-10-22T01:47:33;10.20;99.90
15072;DHT22;7635;56.696;13.002;2022-10-22T01:50:19;10.20;99.90
15072;DHT22;7635;56.696;13.002;2022-10-22T01:52:57;10.20;99.90
15072;DHT22;7635;56.696;13.002;2022-10-22T01:55:35;10.20;99.90
15072;DHT22;7635;56.696;13.002;2022-10-22T01:58:13;10.20;99.90
15072;DHT22;7635;56.696;13.002;2022-10-22T02:00:46;10.20;99.90
15072;DHT22;7635;56.696;13.002;2022-10-22T02:03:22;10.20;99.90
15072;DHT22;7635;56.696;13.002;2022-10-22T02:05:53;10.10;99.90
15072;DHT22;7635;56.696;13.002;2022-10-22T02:08:23;10.10;99.90
15072;DHT22;7635;56.696;13.002;2022-10-22T02:10:51;10.10;99.90
15072;DHT22;7635;56.696;13.002;2022-10-22T02:13:23;10.20;99.90
15072;DHT22;7635;56.696;13.002;2022-10-22T02:15:52;10.10;99.90
15072;DHT22;7635;56.696;13.002;2022-10-22T02:18:22;10.10;99.90
15072;DHT22;7635;56.696;13.002;2022-10-22T02:20:51;10.10;99.90
15072;DHT22;7635;56.696;13.002;2022-10-22T02:23:20;10.10;99.90
15072;DHT22;7635;56.696;13.002;2022-10-22T02:25:52;10.10;99.90
15072;DHT22;7635;56.696;13.002;2022-10-22T02:28:24;10.10;99.90
15072;DHT22;7635;56.696;13.002;2022-10-22T02:30:55;10.10;99.90
15072;DHT22;7635;56.696;13.002;2022-10-22T02:33:28;10.10;99.90
15072;DHT22;7635;56.696;13.002;2022-10-22T02:35:56;10.10;99.90
15072;DHT22;7635;56.696;13.002;2022-10-22T02:38:24;10.10;99.90
15072;DHT22;7635;56.696;13.002;2022-10-22T02:40:52;10.10;99.90
15072;DHT22;7635;56.696;13.002;2022-10-22T02:43:19;10.10;99.90
15072;DHT22;7635;56.696;13.002;2022-10-22T02:45:46;10.10;99.90
15072;DHT22;7635;56.696;13.002;2022-10-22T02:48:13;10.10;99.90
15072;DHT22;7635;56.696;13.002;2022-10-22T02:50:41;10.10;99.90
15072;DHT22;7635;56.696;13.002;2022-10-22T02:53:08;10.10;99.90
15072;DHT22;7635;56.696;13.002;2022-10-22T02:55:34;10.10;99.90
15072;DHT22;7635;56.696;13.002;2022-10-22T02:58:01;10.00;99.90
15072;DHT22;7635;56.696;13.002;2022-10-22T03:00:28;10.00;99.90
15072;DHT22;7635;56.696;13.002;2022-10-22T03:02:55;10.10;99.90
15072;DHT22;7635;56.696;13.002;2022-10-22T03:05:21;10.00;99.90
15072;DHT22;7635;56.696;13.002;2022-10-22T03:07:50;10.00;99.90
15072;DHT22;7635;56.696;13.002;2022-10-22T03:10:16;10.00;99.90
15072;DHT22;7635;56.696;13.002;2022-10-22T03:12:43;10.00;99.90
15072;DHT22;7635;56.696;13.002;2022-10-22T03:15:10;10.00;99.90
15072;DHT22;7635;56.696;13.002;2022-10-22T03:17:37;10.00;99.90
15072;DHT22;7635;56.696;13.002;2022-10-22T03:20:04;10.00;99.90
15072;DHT22;7635;56.696;13.002;2022-10-22T03:22:32;10.00;99.90
15072;DHT22;7635;56.696;13.002;2022-10-22T03:25:04;10.00;99.90
15072;DHT22;7635;56.696;13.002;2022-10-22T03:27:33;10.00;99.90
15072;DHT22;7635;56.696;13.002;2022-10-22T03:30:01;10.00;99.90
15072;DHT22;7635;56.696;13.002;2022-10-22T03:32:28;10.00;99.90
15072;DHT22;7635;56.696;13.002;2022-10-22T03:34:54;10.00;99.90
15072;DHT22;7635;56.696;13.002;2022-10-22T03:37:22;10.00;99.90
15072;DHT22;7635;56.696;13.002;2022-10-22T03:39:49;10.00;99.90
15072;DHT22;7635;56.696;13.002;2022-10-22T03:42:18;10.00;99.90
15072;DHT22;7635;56.696;13.002;2022-10-22T03:44:45;10.00;99.90
15072;DHT22;7635;56.696;13.002;2022-10-22T03:47:12;10.00;99.90
15072;DHT22;7635;56.696;13.002;2022-10-22T03:49:39;10.00;99.90
15072;DHT22;7635;56.696;13.002;2022-10-22T03:52:07;10.00;99.90
15072;DHT22;7635;56.696;13.002;2022-10-22T03:54:34;10.00;99.90
15072;DHT22;7635;56.696;13.002;2022-10-22T03:57:01;10.00;99.90
15072;DHT22;7635;56.696;13.002;2022-10-22T03:59:33;10.00;99.90
15072;DHT22;7635;56.696;13.002;2022-10-22T04:02:00;10.00;99.90
15072;DHT22;7635;56.696;13.002;2022-10-22T04:04:27;10.00;99.90
15072;DHT22;7635;56.696;13.002;2022-10-22T04:06:54;10.00;99.90
15072;DHT22;7635;56.696;13.002;2022-10-22T04:09:20;10.00;99.90
15072;DHT22;7635;56.696;13.002;2022-10-22T04:11:47;10.00;99.90
15072;DHT22;7635;56.696;13.002;2022-10-22T04:14:14;10.00;99.90
15072;DHT22;7635;56.696;13.002;2022-10-22T04:16:42;10.00;99.90
15072;DHT22;7635;56.696;13.002;2022-10-22T04:19:09;10.00;99.90
15072;DHT22;7635;56.696;13.002;2022-10-22T04:21:35;10.00;99.90
15072;DHT22;7635;56.696;13.002;2022-10-22T04:24:02;10.00;99.90
15072;DHT22;7635;56.696;13.002;2022-10-22T04:26:29;10.00;99.90
15072;DHT22;7635;56.696;13.002;2022-10-22T04:28:56;10.00;99.90
15072;DHT22;7635;56.696;13.002;2022-10-22T04:31:23;10.00;99.90
15072;DHT22;7635;56.696;13.002;2022-10-22T04:33:53;10.00;99.90
15072;DHT22;7635;56.696;13.002;2022-10-22T04:36:20;10.00;99.90
15072;DHT22;7635;56.696;13.002;2022-10-22T04:38:51;10.00;99.90
15072;DHT22;7635;56.696;13.002;2022-10-22T04:41:20;10.00;99.90
15072;DHT22;7635;56.696;13.002;2022-10-22T04:43:48;10.00;99.90
15072;DHT22;7635;56.696;13.002;2022-10-22T04:46:16;10.00;99.90
15072;DHT22;7635;56.696;13.002;2022-10-22T04:48:44;10.00;99.90
15072;DHT22;7635;56.696;13.002;2022-10-22T04:51:14;10.00;99.90
15072;DHT22;7635;56.696;13.002;2022-10-22T04:53:41;10.00;99.90
15072;DHT22;7635;56.696;13.002;2022-10-22T04:56:10;10.00;99.90
15072;DHT22;7635;56.696;13.002;2022-10-22T04:58:38;10.00;99.90
15072;DHT22;7635;56.696;13.002;2022-10-22T05:01:09;10.00;99.90
15072;DHT22;7635;56.696;13.002;2022-10-22T05:03:36;10.10;99.90
15072;DHT22;7635;56.696;13.002;2022-10-22T05:06:03;10.10;99.90
15072;DHT22;7635;56.696;13.002;2022-10-22T05:08:31;10.10;99.90
15072;DHT22;7635;56.696;13.002;2022-10-22T05:10:58;10.10;99.90
15072;DHT22;7635;56.696;13.002;2022-10-22T05:13:25;10.10;99.90
15072;DHT22;7635;56.696;13.002;2022-10-22T05:15:51;10.10;99.90
15072;DHT22;7635;56.696;13.002;2022-10-22T05:18:18;10.10;99.90
15072;DHT22;7635;56.696;13.002;2022-10-22T05:20:45;10.10;99.90
15072;DHT22;7635;56.696;13.002;2022-10-22T05:23:12;10.10;99.90
15072;DHT22;7635;56.696;13.002;2022-10-22T05:25:40;10.10;99.90
15072;DHT22;7635;56.696;13.002;2022-10-22T05:28:07;10.10;99.90
15072;DHT22;7635;56.696;13.002;2022-10-22T05:30:33;10.10;99.90
15072;DHT22;7635;56.696;13.002;2022-10-22T05:33:00;10.10;99.90
15072;DHT22;7635;56.696;13.002;2022-10-22T05:35:27;10.10;99.90
15072;DHT22;7635;56.696;13.002;2022-10-22T05:37:54;10.10;99.90
15072;DHT22;7635;56.696;13.002;2022-10-22T05:40:20;10.10;99.90
15072;DHT22;7635;56.696;13.002;2022-10-22T05:42:48;10.10;99.90
15072;DHT22;7635;56.696;13.002;2022-10-22T05:45:15;10.10;99.90
15072;DHT22;7635;56.696;13.002;2022-10-22T05:47:42;10.10;99.90
15072;DHT22;7635;56.696;13.002;2022-10-22T05:50:09;10.10;99.90
15072;DHT22;7635;56.696;13.002;2022-10-22T05:52:35;10.10;99.90
15072;DHT22;7635;56.696;13.002;2022-10-22T05:55:03;10.10;99.90
15072;DHT22;7635;56.696;13.002;2022-10-22T05:57:29;10.20;99.90
15072;DHT22;7635;56.696;13.002;2022-10-22T05:59:57;10.20;99.90
15072;DHT22;7635;56.696;13.002;2022-10-22T06:02:24;10.20;99.90
15072;DHT22;7635;56.696;13.002;2022-10-22T06:04:51;10.20;99.90
15072;DHT22;7635;56.696;13.002;2022-10-22T06:07:18;10.20;99.90
15072;DHT22;7635;56.696;13.002;2022-10-22T06:09:44;10.20;99.90
15072;DHT22;7635;56.696;13.002;2022-10-22T06:12:12;10.20;99.90
15072;DHT22;7635;56.696;13.002;2022-10-22T06:14:38;10.20;99.90
15072;DHT22;7635;56.696;13.002;2022-10-22T06:17:08;10.20;99.90
15072;DHT22;7635;56.696;13.002;2022-10-22T06:19:34;10.20;99.90
15072;DHT22;7635;56.696;13.002;2022-10-22T06:22:02;10.30;99.90
15072;DHT22;7635;56.696;13.002;2022-10-22T06:24:29;10.20;99.90
15072;DHT22;7635;56.696;13.002;2022-10-22T06:26:56;10.20;99.90
15072;DHT22;7635;56.696;13.002;2022-10-22T06:29:22;10.30;99.90
15072;DHT22;7635;56.696;13.002;2022-10-22T06:31:49;10.30;99.90
15072;DHT22;7635;56.696;13.002;2022-10-22T06:34:17;10.30;99.90
15072;DHT22;7635;56.696;13.002;2022-10-22T06:36:44;10.30;99.90
15072;DHT22;7635;56.696;13.002;2022-10-22T06:39:13;10.30;99.90
15072;DHT22;7635;56.696;13.002;2022-10-22T06:41:40;10.30;99.90
15072;DHT22;7635;56.696;13.002;2022-10-22T06:44:12;10.30;99.90
15072;DHT22;7635;56.696;13.002;2022-10-22T06:46:39;10.30;99.90
15072;DHT22;7635;56.696;13.002;2022-10-22T06:49:06;10.30;99.90
15072;DHT22;7635;56.696;13.002;2022-10-22T06:51:35;10.30;99.90
15072;DHT22;7635;56.696;13.002;2022-10-22T06:54:01;10.40;99.90
15072;DHT22;7635;56.696;13.002;2022-10-22T06:56:28;10.40;99.90
15072;DHT22;7635;56.696;13.002;2022-10-22T06:58:56;10.40;99.90
15072;DHT22;7635;56.696;13.002;2022-10-22T07:01:25;10.40;99.90
15072;DHT22;7635;56.696;13.002;2022-10-22T07:03:52;10.40;99.90
15072;DHT22;7635;56.696;13.002;2022-10-22T07:06:23;10.40;99.90
15072;DHT22;7635;56.696;13.002;2022-10-22T07:08:52;10.40;99.90
15072;DHT22;7635;56.696;13.002;2022-10-22T07:11:21;10.50;99.90
15072;DHT22;7635;56.696;13.002;2022-10-22T07:13:49;10.50;99.90
15072;DHT22;7635;56.696;13.002;2022-10-22T07:16:16;10.50;99.90
15072;DHT22;7635;56.696;13.002;2022-10-22T07:18:44;10.50;99.90
15072;DHT22;7635;56.696;13.002;2022-10-22T07:21:12;10.50;99.90
15072;DHT22;7635;56.696;13.002;2022-10-22T07:23:40;10.50;99.90
15072;DHT22;7635;56.696;13.002;2022-10-22T07:26:09;10.50;99.90
15072;DHT22;7635;56.696;13.002;2022-10-22T07:28:37;10.60;99.90
15072;DHT22;7635;56.696;13.002;2022-10-22T07:31:06;10.60;99.90
15072;DHT22;7635;56.696;13.002;2022-10-22T07:33:34;10.60;99.90
15072;DHT22;7635;56.696;13.002;2022-10-22T07:36:03;10.60;99.90
15072;DHT22;7635;56.696;13.002;2022-10-22T07:38:30;10.60;99.90
15072;DHT22;7635;56.696;13.002;2022-10-22T07:40:58;10.70;99.90
15072;DHT22;7635;56.696;13.002;2022-10-22T07:43:26;10.70;99.90
15072;DHT22;7635;56.696;13.002;2022-10-22T07:45:53;10.70;99.90
15072;DHT22;7635;56.696;13.002;2022-10-22T07:48:21;10.70;99.90
15072;DHT22;7635;56.696;13.002;2022-10-22T07:50:48;10.70;99.90
15072;DHT22;7635;56.696;13.002;2022-10-22T07:53:15;10.70;99.90
15072;DHT22;7635;56.696;13.002;2022-10-22T07:55:42;10.70;99.90
15072;DHT22;7635;56.696;13.002;2022-10-22T07:58:08;10.70;99.90
15072;DHT22;7635;56.696;13.002;2022-10-22T08:00:37;10.70;99.90
15072;DHT22;7635;56.696;13.002;2022-10-22T08:03:03;10.80;99.90
15072;DHT22;7635;56.696;13.002;2022-10-22T08:05:30;10.80;99.90
15072;DHT22;7635;56.696;13.002;2022-10-22T08:07:58;10.80;99.90
15072;DHT22;7635;56.696;13.002;2022-10-22T08:10:25;10.80;99.90
15072;DHT22;7635;56.696;13.002;2022-10-22T08:12:52;10.80;99.90
15072;DHT22;7635;56.696;13.002;2022-10-22T08:15:18;10.80;99.90
15072;DHT22;7635;56.696;13.002;2022-10-22T08:17:48;10.90;99.90
15072;DHT22;7635;56.696;13.002;2022-10-22T08:20:14;10.90;99.90
15072;DHT22;7635;56.696;13.002;2022-10-22T08:22:41;10.90;99.90
15072;DHT22;7635;56.696;13.002;2022-10-22T08:25:09;10.90;99.90
15072;DHT22;7635;56.696;13.002;2022-10-22T08:27:36;10.90;99.90
15072;DHT22;7635;56.696;13.002;2022-10-22T08:30:03;10.90;99.90
15072;DHT22;7635;56.696;13.002;2022-10-22T08:32:31;10.90;99.90
15072;DHT22;7635;56.696;13.002;2022-10-22T08:34:59;11.00;99.90
15072;DHT22;7635;56.696;13.002;2022-10-22T08:37:26;11.00;99.90
15072;DHT22;7635;56.696;13.002;2022-10-22T08:39:53;11.00;99.90
15072;DHT22;7635;56.696;13.002;2022-10-22T08:42:42;11.00;99.90
15072;DHT22;7635;56.696;13.002;2022-10-22T08:45:19;11.00;99.90
15072;DHT22;7635;56.696;13.002;2022-10-22T08:48:07;11.00;99.90
15072;DHT22;7635;56.696;13.002;2022-10-22T08:50:39;11.00;99.90
15072;DHT22;7635;56.696;13.002;2022-10-22T08:53:12;11.00;99.90
15072;DHT22;7635;56.696;13.002;2022-10-22T08:55:39;11.10;99.90
15072;DHT22;7635;56.696;13.002;2022-10-22T08:58:12;11.10;99.90
15072;DHT22;7635;56.696;13.002;2022-10-22T09:00:45;11.10;99.90
15072;DHT22;7635;56.696;13.002;2022-10-22T09:06:14;11.20;99.90
15072;DHT22;7635;56.696;13.002;2022-10-22T09:08:44;11.20;99.90
15072;DHT22;7635;56.696;13.002;2022-10-22T09:11:24;11.20;99.90
15072;DHT22;7635;56.696;13.002;2022-10-22T09:13:53;11.20;99.90
15072;DHT22;7635;56.696;13.002;2022-10-22T09:16:26;11.30;99.90
15072;DHT22;7635;56.696;13.002;2022-10-22T09:19:05;11.30;99.90
15072;DHT22;7635;56.696;13.002;2022-10-22T09:21:47;11.30;99.90
15072;DHT22;7635;56.696;13.002;2022-10-22T09:24:23;11.30;99.90
15072;DHT22;7635;56.696;13.002;2022-10-22T09:26:51;11.30;99.90
15072;DHT22;7635;56.696;13.002;2022-10-22T09:29:21;11.30;99.90
15072;DHT22;7635;56.696;13.002;2022-10-22T09:31:49;11.30;99.90
15072;DHT22;7635;56.696;13.002;2022-10-22T09:34:19;11.40;99.90
15072;DHT22;7635;56.696;13.002;2022-10-22T09:36:56;11.40;99.90
15072;DHT22;7635;56.696;13.002;2022-10-22T09:39:25;11.50;99.90
15072;DHT22;7635;56.696;13.002;2022-10-22T09:41:52;11.50;99.90
15072;DHT22;7635;56.696;13.002;2022-10-22T09:44:20;11.60;99.90
15072;DHT22;7635;56.696;13.002;2022-10-22T09:46:46;11.60;99.90
15072;DHT22;7635;56.696;13.002;2022-10-22T09:49:14;11.70;99.90
15072;DHT22;7635;56.696;13.002;2022-10-22T09:51:50;11.80;99.90
15072;DHT22;7635;56.696;13.002;2022-10-22T09:54:19;11.80;99.90
15072;DHT22;7635;56.696;13.002;2022-10-22T09:56:51;11.90;99.90
15072;DHT22;7635;56.696;13.002;2022-10-22T09:59:25;11.90;99.90
15072;DHT22;7635;56.696;13.002;2022-10-22T10:01:57;11.90;99.90
15072;DHT22;7635;56.696;13.002;2022-10-22T10:04:24;12.00;99.90
15072;DHT22;7635;56.696;13.002;2022-10-22T10:06:54;12.00;99.90
15072;DHT22;7635;56.696;13.002;2022-10-22T10:09:23;12.10;99.90
15072;DHT22;7635;56.696;13.002;2022-10-22T10:11:56;12.10;99.90
15072;DHT22;7635;56.696;13.002;2022-10-22T10:14:29;12.20;99.90
15072;DHT22;7635;56.696;13.002;2022-10-22T10:17:07;12.20;99.90
15072;DHT22;7635;56.696;13.002;2022-10-22T10:19:48;12.30;99.90
15072;DHT22;7635;56.696;13.002;2022-10-22T10:22:36;12.30;99.90
15072;DHT22;7635;56.696;13.002;2022-10-22T10:25:27;12.40;99.90
15072;DHT22;7635;56.696;13.002;2022-10-22T10:28:03;12.50;99.90
15072;DHT22;7635;56.696;13.002;2022-10-22T10:30:41;12.60;99.90
15072;DHT22;7635;56.696;13.002;2022-10-22T10:33:20;12.70;99.90
15072;DHT22;7635;56.696;13.002;2022-10-22T10:35:53;12.70;99.90
15072;DHT22;7635;56.696;13.002;2022-10-22T10:38:34;12.80;99.90
15072;DHT22;7635;56.696;13.002;2022-10-22T10:41:12;12.80;99.90
15072;DHT22;7635;56.696;13.002;2022-10-22T10:43:53;12.80;99.90
15072;DHT22;7635;56.696;13.002;2022-10-22T10:46:31;12.80;99.90
15072;DHT22;7635;56.696;13.002;2022-10-22T10:49:00;12.80;99.90
15072;DHT22;7635;56.696;13.002;2022-10-22T10:51:42;12.80;99.90
15072;DHT22;7635;56.696;13.002;2022-10-22T10:54:24;12.90;99.90
15072;DHT22;7635;56.696;13.002;2022-10-22T10:56:55;12.90;99.90
15072;DHT22;7635;56.696;13.002;2022-10-22T10:59:33;12.90;99.90
15072;DHT22;7635;56.696;13.002;2022-10-22T11:02:27;12.90;99.90
15072;DHT22;7635;56.696;13.002;2022-10-22T11:05:21;12.90;99.90
15072;DHT22;7635;56.696;13.002;2022-10-22T11:07:54;12.90;99.90
15072;DHT22;7635;56.696;13.002;2022-10-22T11:10:29;12.90;99.90
15072;DHT22;7635;56.696;13.002;2022-10-22T11:13:03;12.90;99.90
15072;DHT22;7635;56.696;13.002;2022-10-22T11:15:32;12.90;99.90
15072;DHT22;7635;56.696;13.002;2022-10-22T11:18:04;12.90;99.90
15072;DHT22;7635;56.696;13.002;2022-10-22T11:20:43;12.90;99.90
15072;DHT22;7635;56.696;13.002;2022-10-22T11:23:15;12.80;99.90
15072;DHT22;7635;56.696;13.002;2022-10-22T11:25:46;12.90;99.90
15072;DHT22;7635;56.696;13.002;2022-10-22T11:28:16;12.90;99.90
15072;DHT22;7635;56.696;13.002;2022-10-22T11:30:47;12.90;99.90
15072;DHT22;7635;56.696;13.002;2022-10-22T11:33:18;13.00;99.90
15072;DHT22;7635;56.696;13.002;2022-10-22T11:35:47;13.10;99.90
15072;DHT22;7635;56.696;13.002;2022-10-22T11:38:17;13.10;99.90
15072;DHT22;7635;56.696;13.002;2022-10-22T11:40:53;13.10;99.90
15072;DHT22;7635;56.696;13.002;2022-10-22T11:43:27;13.20;99.90
15072;DHT22;7635;56.696;13.002;2022-10-22T11:46:01;13.20;99.90
15072;DHT22;7635;56.696;13.002;2022-10-22T11:48:35;13.20;99.90
15072;DHT22;7635;56.696;13.002;2022-10-22T11:51:03;13.20;99.90
15072;DHT22;7635;56.696;13.002;2022-10-22T11:53:31;13.20;99.90
15072;DHT22;7635;56.696;13.002;2022-10-22T11:56:21;13.30;99.90
15072;DHT22;7635;56.696;13.002;2022-10-22T11:58:48;13.30;99.90
15072;DHT22;7635;56.696;13.002;2022-10-22T12:01:23;13.40;99.90
15072;DHT22;7635;56.696;13.002;2022-10-22T12:03:52;13.40;99.90
15072;DHT22;7635;56.696;13.002;2022-10-22T12:06:21;13.40;99.90
15072;DHT22;7635;56.696;13.002;2022-10-22T12:08:56;13.40;99.90
15072;DHT22;7635;56.696;13.002;2022-10-22T12:11:27;13.40;99.90
15072;DHT22;7635;56.696;13.002;2022-10-22T12:14:15;13.40;99.90
15072;DHT22;7635;56.696;13.002;2022-10-22T12:16:45;13.30;99.90
15072;DHT22;7635;56.696;13.002;2022-10-22T12:19:15;13.40;99.90
15072;DHT22;7635;56.696;13.002;2022-10-22T12:21:46;13.40;99.90
15072;DHT22;7635;56.696;13.002;2022-10-22T12:24:14;13.40;99.90
15072;DHT22;7635;56.696;13.002;2022-10-22T12:26:44;13.40;99.90
15072;DHT22;7635;56.696;13.002;2022-10-22T12:29:12;13.40;99.90
15072;DHT22;7635;56.696;13.002;2022-10-22T12:31:41;13.40;99.90
15072;DHT22;7635;56.696;13.002;2022-10-22T12:34:12;13.40;99.90
15072;DHT22;7635;56.696;13.002;2022-10-22T12:36:39;13.40;99.90
15072;DHT22;7635;56.696;13.002;2022-10-22T12:39:11;13.40;99.90
15072;DHT22;7635;56.696;13.002;2022-10-22T12:41:39;13.40;99.90
15072;DHT22;7635;56.696;13.002;2022-10-22T12:44:11;13.30;99.90
15072;DHT22;7635;56.696;13.002;2022-10-22T12:46:38;13.30;99.90
15072;DHT22;7635;56.696;13.002;2022-10-22T12:49:09;13.20;99.90
15072;DHT22;7635;56.696;13.002;2022-10-22T12:51:37;13.20;99.90
15072;DHT22;7635;56.696;13.002;2022-10-22T12:54:07;13.10;99.90
15072;DHT22;7635;56.696;13.002;2022-10-22T12:56:35;13.00;99.90
15072;DHT22;7635;56.696;13.002;2022-10-22T12:59:08;13.00;99.90
15072;DHT22;7635;56.696;13.002;2022-10-22T13:01:38;12.90;99.90
15072;DHT22;7635;56.696;13.002;2022-10-22T13:04:18;12.90;99.90
15072;DHT22;7635;56.696;13.002;2022-10-22T13:06:46;12.80;99.90
15072;DHT22;7635;56.696;13.002;2022-10-22T13:09:18;12.80;99.90
15072;DHT22;7635;56.696;13.002;2022-10-22T13:11:50;12.80;99.90
15072;DHT22;7635;56.696;13.002;2022-10-22T13:14:26;12.80;99.90
15072;DHT22;7635;56.696;13.002;2022-10-22T13:17:05;12.90;99.90
15072;DHT22;7635;56.696;13.002;2022-10-22T13:19:37;12.90;99.90
15072;DHT22;7635;56.696;13.002;2022-10-22T13:24:48;12.90;99.90
15072;DHT22;7635;56.696;13.002;2022-10-22T13:27:15;12.90;99.90
15072;DHT22;7635;56.696;13.002;2022-10-22T13:29:44;12.90;99.90
15072;DHT22;7635;56.696;13.002;2022-10-22T13:32:23;12.90;99.90
15072;DHT22;7635;56.696;13.002;2022-10-22T13:34:51;13.00;99.90
15072;DHT22;7635;56.696;13.002;2022-10-22T13:37:18;13.00;99.90
15072;DHT22;7635;56.696;13.002;2022-10-22T13:39:45;13.00;99.90
15072;DHT22;7635;56.696;13.002;2022-10-22T13:42:12;13.00;99.90
15072;DHT22;7635;56.696;13.002;2022-10-22T13:44:39;12.90;99.90
15072;DHT22;7635;56.696;13.002;2022-10-22T13:47:16;12.90;99.90
15072;DHT22;7635;56.696;13.002;2022-10-22T13:49:47;12.90;99.90
15072;DHT22;7635;56.696;13.002;2022-10-22T13:52:28;12.90;99.90
15072;DHT22;7635;56.696;13.002;2022-10-22T13:54:55;12.90;99.90
15072;DHT22;7635;56.696;13.002;2022-10-22T13:57:22;12.90;99.90
15072;DHT22;7635;56.696;13.002;2022-10-22T13:59:48;12.90;99.90
15072;DHT22;7635;56.696;13.002;2022-10-22T14:02:17;13.00;99.90
15072;DHT22;7635;56.696;13.002;2022-10-22T14:04:44;12.90;99.90
15072;DHT22;7635;56.696;13.002;2022-10-22T14:07:12;12.90;99.90
15072;DHT22;7635;56.696;13.002;2022-10-22T14:09:39;12.90;99.90
15072;DHT22;7635;56.696;13.002;2022-10-22T14:12:10;12.90;99.90
15072;DHT22;7635;56.696;13.002;2022-10-22T14:14:37;12.90;99.90
15072;DHT22;7635;56.696;13.002;2022-10-22T14:17:05;12.80;99.90
15072;DHT22;7635;56.696;13.002;2022-10-22T14:19:35;12.80;99.90
15072;DHT22;7635;56.696;13.002;2022-10-22T14:22:02;12.80;99.90
15072;DHT22;7635;56.696;13.002;2022-10-22T14:24:29;12.80;99.90
15072;DHT22;7635;56.696;13.002;2022-10-22T14:26:56;12.70;99.90
15072;DHT22;7635;56.696;13.002;2022-10-22T14:29:23;12.70;99.90
15072;DHT22;7635;56.696;13.002;2022-10-22T14:31:50;12.70;99.90
15072;DHT22;7635;56.696;13.002;2022-10-22T14:34:17;12.70;99.90
15072;DHT22;7635;56.696;13.002;2022-10-22T14:36:45;12.60;99.90
15072;DHT22;7635;56.696;13.002;2022-10-22T14:39:12;12.60;99.90
15072;DHT22;7635;56.696;13.002;2022-10-22T14:41:39;12.50;99.90
15072;DHT22;7635;56.696;13.002;2022-10-22T14:44:07;12.50;99.90
15072;DHT22;7635;56.696;13.002;2022-10-22T14:46:37;12.50;99.90
15072;DHT22;7635;56.696;13.002;2022-10-22T14:49:04;12.50;99.90
15072;DHT22;7635;56.696;13.002;2022-10-22T14:51:31;12.40;99.90
15072;DHT22;7635;56.696;13.002;2022-10-22T14:53:59;12.40;99.90
15072;DHT22;7635;56.696;13.002;2022-10-22T14:56:26;12.40;99.90
15072;DHT22;7635;56.696;13.002;2022-10-22T14:58:53;12.40;99.90
15072;DHT22;7635;56.696;13.002;2022-10-22T15:01:19;12.40;99.90
15072;DHT22;7635;56.696;13.002;2022-10-22T15:03:47;12.30;99.90
15072;DHT22;7635;56.696;13.002;2022-10-22T15:06:14;12.40;99.90
15072;DHT22;7635;56.696;13.002;2022-10-22T15:08:40;12.30;99.90
15072;DHT22;7635;56.696;13.002;2022-10-22T15:11:10;12.30;99.90
15072;DHT22;7635;56.696;13.002;2022-10-22T15:13:37;12.30;99.90
15072;DHT22;7635;56.696;13.002;2022-10-22T15:16:07;12.30;99.90
15072;DHT22;7635;56.696;13.002;2022-10-22T15:18:34;12.30;99.90
15072;DHT22;7635;56.696;13.002;2022-10-22T15:21:03;12.30;99.90
15072;DHT22;7635;56.696;13.002;2022-10-22T15:23:30;12.30;99.90
15072;DHT22;7635;56.696;13.002;2022-10-22T15:25:57;12.20;99.90
15072;DHT22;7635;56.696;13.002;2022-10-22T15:28:25;12.30;99.90
15072;DHT22;7635;56.696;13.002;2022-10-22T15:30:53;12.20;99.90
15072;DHT22;7635;56.696;13.002;2022-10-22T15:33:20;12.20;99.90
15072;DHT22;7635;56.696;13.002;2022-10-22T15:35:47;12.20;99.90
15072;DHT22;7635;56.696;13.002;2022-10-22T15:38:14;12.20;99.90
15072;DHT22;7635;56.696;13.002;2022-10-22T15:40:40;12.10;99.90
15072;DHT22;7635;56.696;13.002;2022-10-22T15:43:07;12.10;99.90
15072;DHT22;7635;56.696;13.002;2022-10-22T15:45:35;12.10;99.90
15072;DHT22;7635;56.696;13.002;2022-10-22T15:48:03;12.10;99.90
15072;DHT22;7635;56.696;13.002;2022-10-22T15:50:30;12.00;99.90
15072;DHT22;7635;56.696;13.002;2022-10-22T15:52:56;12.00;99.90